Aonach Mor, United Kingdom
Current Conditions -  °F | °C
As of 1:50 AM on Monday 22 Dec 2014 (Local Time) from EGPE Reporting Station
Light Rain Light Rain  
Wind Chill: 40°   Ceiling: Unl
Heat Index: 46°   Visibility: 6mi
Dew Point: 39°   Wind: 16mph
Humidity: 76%   Direction: 260°W
Pressure: 29.44"   Gusts: NA
Location:  56.82°N, 4.97°W
Report Text: EGPE 220150Z AUTO 26014KT 9999 -RA FEW029/// SCT041/// 08/04 Q0997
Loading
Personal Weather Stations






























Interactive Weather Map New forecast layout! Learn more

10-Day Weather Forecast

Advertisements
Track Severe Weather on mobile